Time;durP1;ratioP1;P1;durP2;ratioP2;P2;SDS_P1;SDS_P2;PMS_P1;PMS_P2;Temp;Humidity;BMP_temperature;BMP_pressure;BME280_temperature;BME280_humidity;BME280_pressure;Samples;Min_cycle;Max_cycle;Signal;HPM_P1;HPM_P2
2022/03/18 00:00:32;;;;;;;;;;;;;;;4.84;100.00;97223.78;1031503;28;19914;-72
2022/03/18 00:01:03;;;;;;;;;;;;;;;4.82;100.00;97225.75;1032543;28;19925;-73
2022/03/18 00:01:33;;;;;;;;;;;;;;;4.81;100.00;97229.34;1036151;28;19957;-72
2022/03/18 00:02:04;;;;;;;;;;;;;;;4.81;100.00;97224.16;1035160;28;19921;-73
2022/03/18 00:02:34;;;;;;;;;;;;;;;4.82;100.00;97225.75;1030335;28;19922;-72
2022/03/18 00:03:04;;;;;;;;;;;;;;;4.82;100.00;97222.34;1030861;28;19930;-72
2022/03/18 00:03:35;;;;;;;;;;;;;;;4.82;100.00;97228.34;1030845;28;19918;-72
2022/03/18 00:04:05;;;;;;;;;;;;;;;4.80;100.00;97222.56;1034992;28;19963;-72
2022/03/18 00:04:35;;;;;;;;;;;;;;;4.83;100.00;97231.75;1034586;28;19968;-72
2022/03/18 00:05:06;;;;;;;;;;;;;;;4.82;100.00;97224.94;1035188;28;19967;-72
2022/03/18 00:05:36;;;;;;;;;;;;;;;4.80;100.00;97222.56;1030800;28;19921;-72
2022/03/18 00:06:07;;;;;;;;;;;;;;;4.79;100.00;97225.31;1026962;28;19918;-72
2022/03/18 00:06:37;;;;;;;;;;;;;;;4.80;100.00;97230.34;1023035;28;19918;-72
2022/03/18 00:07:11;;;;;;;;;;;;;;;4.81;100.00;97223.34;1027566;28;19914;-72
2022/03/18 00:07:42;;;;;;;;;;;;;;;4.81;100.00;97226.75;1031307;28;19909;-72
2022/03/18 00:08:12;;;;;;;;;;;;;;;4.79;100.00;97226.13;1033960;28;20536;-72
2022/03/18 00:08:42;;;;;;;;;;;;;;;4.80;100.00;97225.16;1034444;28;20029;-72
2022/03/18 00:09:13;;;;;;;;;;;;;;;4.80;100.00;97226.94;1038598;28;19921;-71
2022/03/18 00:09:43;;;;;;;;;;;;;;;4.81;100.00;97223.34;1039032;28;19955;-72
2022/03/18 00:10:19;;;;;;;;;;;;;;;4.80;100.00;97232.16;1034740;28;20276;-71
2022/03/18 00:10:49;;;;;;;;;;;;;;;4.82;100.00;97224.94;1039705;28;20426;-71
2022/03/18 00:11:19;;;;;;;;;;;;;;;4.80;100.00;97222.56;1034852;28;19909;-72
2022/03/18 00:11:50;;;;;;;;;;;;;;;4.81;100.00;97234.56;1035043;28;19918;-72
2022/03/18 00:12:20;;;;;;;;;;;;;;;4.82;100.00;97230.94;1026216;28;20315;-72
2022/03/18 00:12:53;;;;;;;;;;;;;;;4.80;100.00;97230.34;1030767;28;19981;-73
2022/03/18 00:13:24;;;;;;;;;;;;;;;4.81;100.00;97229.34;1031111;28;19914;-72
2022/03/18 00:13:55;;;;;;;;;;;;;;;4.82;100.00;97233.56;1027244;28;19918;-72
2022/03/18 00:14:25;;;;;;;;;;;;;;;4.81;100.00;97229.34;1031127;28;20403;-72
2022/03/18 00:14:56;;;;;;;;;;;;;;;4.80;100.00;97229.56;1024890;28;19933;-72
2022/03/18 00:15:27;;;;;;;;;;;;;;;4.79;100.00;97233.13;1030701;28;19953;-73
2022/03/18 00:15:58;;;;;;;;;;;;;;;4.76;100.00;97231.69;1026191;28;19957;-72
2022/03/18 00:16:29;;;;;;;;;;;;;;;4.79;100.00;97230.53;1027367;28;19945;-72
2022/03/18 00:16:59;;;;;;;;;;;;;;;4.78;100.00;97224.53;1030037;28;19984;-72
2022/03/18 00:17:29;;;;;;;;;;;;;;;4.78;100.00;97223.72;1031105;28;19943;-72
2022/03/18 00:18:00;;;;;;;;;;;;;;;4.80;100.00;97225.16;1034618;28;19921;-72
2022/03/18 00:18:30;;;;;;;;;;;;;;;4.80;100.00;97226.94;1034862;28;19910;-72
2022/03/18 00:19:01;;;;;;;;;;;;;;;4.77;100.00;97225.53;1036852;28;20710;-72
2022/03/18 00:19:31;;;;;;;;;;;;;;;4.79;100.00;97231.31;1038811;28;19918;-72
2022/03/18 00:20:02;;;;;;;;;;;;;;;4.82;100.00;97222.34;1030822;28;20338;-72
2022/03/18 00:20:35;;;;;;;;;;;;;;;4.84;100.00;97222.97;1023260;28;20312;-73
2022/03/18 00:21:07;;;;;;;;;;;;;;;4.82;100.00;97225.75;1026737;28;19918;-72
2022/03/18 00:21:37;;;;;;;;;;;;;;;4.82;100.00;97220.53;1028315;28;20690;-72
2022/03/18 00:22:08;;;;;;;;;;;;;;;4.82;100.00;97224.94;1031758;28;19913;-72
2022/03/18 00:22:42;;;;;;;;;;;;;;;4.81;100.00;97226.75;1036694;28;19921;-73
2022/03/18 00:23:13;;;;;;;;;;;;;;;4.84;100.00;97233.38;1033951;28;20008;-72
2022/03/18 00:23:43;;;;;;;;;;;;;;;4.83;100.00;97229.16;1030935;28;19996;-72
2022/03/18 00:24:14;;;;;;;;;;;;;;;4.81;100.00;97228.56;1031937;28;19959;-72
2022/03/18 00:24:44;;;;;;;;;;;;;;;4.82;100.00;97223.16;1034994;28;19920;-72
2022/03/18 00:25:18;;;;;;;;;;;;;;;4.87;100.00;97227.81;1034846;28;19976;-72
2022/03/18 00:25:48;;;;;;;;;;;;;;;4.84;100.00;97231.56;1031730;28;19952;-73
2022/03/18 00:26:19;;;;;;;;;;;;;;;4.83;100.00;97229.97;1034754;28;19924;-73
2022/03/18 00:26:49;;;;;;;;;;;;;;;4.84;100.00;97228.97;1031122;28;19932;-72
2022/03/18 00:27:19;;;;;;;;;;;;;;;4.83;100.00;97227.38;1030728;28;19917;-72
2022/03/18 00:27:50;;;;;;;;;;;;;;;4.83;100.00;97227.38;1030715;28;19922;-72
2022/03/18 00:28:20;;;;;;;;;;;;;;;4.87;100.00;97231.19;1027024;28;19903;-72
2022/03/18 00:28:53;;;;;;;;;;;;;;;4.86;100.00;97232.19;1029998;28;19929;-72
2022/03/18 00:29:25;;;;;;;;;;;;;;;4.85;100.00;97227.97;1034266;28;19951;-72
2022/03/18 00:29:58;;;;;;;;;;;;;;;4.85;100.00;97229.78;1035281;28;19948;-72
2022/03/18 00:30:30;;;;;;;;;;;;;;;4.86;100.00;97229.59;1034564;28;19917;-72
2022/03/18 00:31:03;;;;;;;;;;;;;;;4.86;100.00;97228.78;1035992;28;20350;-73
2022/03/18 00:31:34;;;;;;;;;;;;;;;4.86;100.00;97228.78;1038808;28;19925;-71
2022/03/18 00:32:04;;;;;;;;;;;;;;;4.88;100.00;97230.19;1034686;28;20518;-73
2022/03/18 00:32:34;;;;;;;;;;;;;;;4.87;100.00;97228.59;1035471;28;19905;-72
2022/03/18 00:33:06;;;;;;;;;;;;;;;4.86;100.00;97227.00;1034909;28;20622;-73
2022/03/18 00:33:37;;;;;;;;;;;;;;;4.84;100.00;97223.78;1030776;28;19913;-73
2022/03/18 00:34:10;;;;;;;;;;;;;;;4.85;100.00;97227.97;1030898;28;20478;-72
2022/03/18 00:34:40;;;;;;;;;;;;;;;4.86;100.00;97226.16;1031287;28;19957;-72
2022/03/18 00:35:11;;;;;;;;;;;;;;;4.85;100.00;97229.78;1030963;28;19913;-72
2022/03/18 00:35:41;;;;;;;;;;;;;;;4.84;100.00;97228.97;1030968;28;19953;-73
2022/03/18 00:36:11;;;;;;;;;;;;;;;4.84;100.00;97228.97;1036570;28;19914;-73
2022/03/18 00:36:42;;;;;;;;;;;;;;;4.86;100.00;97232.19;1031028;28;19929;-72
2022/03/18 00:37:12;;;;;;;;;;;;;;;4.86;100.00;97229.59;1031205;28;20469;-73
2022/03/18 00:37:45;;;;;;;;;;;;;;;4.85;100.00;97229.78;1029354;28;20307;-72
2022/03/18 00:38:15;;;;;;;;;;;;;;;4.83;100.00;97232.56;1027178;28;19911;-72
2022/03/18 00:38:46;;;;;;;;;;;;;;;4.80;100.00;97232.94;1030862;28;19916;-73
2022/03/18 00:39:16;;;;;;;;;;;;;;;4.83;100.00;97227.38;1030607;28;19964;-72
2022/03/18 00:39:46;;;;;;;;;;;;;;;4.85;100.00;97227.19;1030525;28;19965;-72
2022/03/18 00:40:17;;;;;;;;;;;;;;;4.82;100.00;97230.94;1035762;28;19912;-71
2022/03/18 00:40:50;;;;;;;;;;;;;;;4.81;100.00;97226.75;1030946;28;19910;-72
2022/03/18 00:41:20;;;;;;;;;;;;;;;4.81;100.00;97229.34;1026766;28;19910;-72
2022/03/18 00:41:51;;;;;;;;;;;;;;;4.82;100.00;97236.16;1026889;28;19914;-72
2022/03/18 00:42:21;;;;;;;;;;;;;;;4.83;100.00;97226.53;1028165;28;20372;-74
2022/03/18 00:42:52;;;;;;;;;;;;;;;4.83;100.00;97232.56;1030687;28;19979;-72
2022/03/18 00:43:22;;;;;;;;;;;;;;;4.82;100.00;97230.16;1035304;28;19905;-72
2022/03/18 00:43:53;;;;;;;;;;;;;;;4.80;100.00;97232.94;1030639;28;19928;-72
2022/03/18 00:44:25;;;;;;;;;;;;;;;4.80;100.00;97227.75;1035126;28;19910;-73
2022/03/18 00:44:56;;;;;;;;;;;;;;;4.82;100.00;97225.75;1026473;28;19922;-72
2022/03/18 00:45:26;;;;;;;;;;;;;;;4.81;100.00;97229.34;1028035;28;19914;-72
2022/03/18 00:45:56;;;;;;;;;;;;;;;4.83;100.00;97226.53;1027017;28;20346;-72
2022/03/18 00:46:27;;;;;;;;;;;;;;;4.82;100.00;97230.94;1029034;28;19906;-71
2022/03/18 00:46:57;;;;;;;;;;;;;;;4.81;100.00;97233.75;1038827;28;19971;-71
2022/03/18 00:52:21;;;;;;;;;;;;;;;4.81;100.00;97229.34;1043007;28;19928;-72
2022/03/18 00:52:51;;;;;;;;;;;;;;;4.80;100.00;97230.34;1034739;28;19927;-72
2022/03/18 00:53:22;;;;;;;;;;;;;;;4.80;100.00;97235.56;1034156;28;19923;-72
2022/03/18 00:53:55;;;;;;;;;;;;;;;4.83;100.00;97227.38;1030596;28;19957;-72
2022/03/18 00:54:25;;;;;;;;;;;;;;;4.81;100.00;97234.56;1031117;28;19920;-72
2022/03/18 00:54:55;;;;;;;;;;;;;;;4.80;100.00;97238.16;1024956;28;19964;-73
2022/03/18 00:55:25;;;;;;;;;;;;;;;4.78;100.00;97229.72;1023314;29;19918;-72
2022/03/18 00:55:56;;;;;;;;;;;;;;;4.79;100.00;97230.53;1026635;28;19929;-72
2022/03/18 00:56:26;;;;;;;;;;;;;;;4.80;100.00;97232.16;1030811;28;19929;-72
2022/03/18 00:56:56;;;;;;;;;;;;;;;4.78;100.00;97229.72;1043093;28;19920;-71
2022/03/18 00:57:27;;;;;;;;;;;;;;;4.81;100.00;97237.16;1039009;28;20629;-72
2022/03/18 00:57:57;;;;;;;;;;;;;;;4.80;100.00;97232.16;1038929;28;19921;-72
2022/03/18 00:58:27;;;;;;;;;;;;;;;4.79;100.00;97228.72;1038949;28;19928;-72
2022/03/18 00:58:58;;;;;;;;;;;;;;;4.78;100.00;97234.94;1033986;28;19921;-72
2022/03/18 00:59:28;;;;;;;;;;;;;;;4.78;100.00;97237.53;1035201;28;19929;-72
2022/03/18 00:59:58;;;;;;;;;;;;;;;4.79;100.00;97233.13;1032040;28;20000;-72
2022/03/18 01:00:31;;;;;;;;;;;;;;;4.78;100.00;97234.94;1034856;28;19921;-71
2022/03/18 01:01:02;;;;;;;;;;;;;;;4.76;100.00;97236.09;1038743;28;19927;-72
2022/03/18 01:01:32;;;;;;;;;;;;;;;4.77;100.00;97233.31;1038662;28;19928;-71
2022/03/18 01:02:03;;;;;;;;;;;;;;;4.79;100.00;97240.94;1034748;28;20391;-72
2022/03/18 01:02:33;;;;;;;;;;;;;;;4.76;100.00;97231.69;1034846;28;19921;-71
2022/03/18 01:03:05;;;;;;;;;;;;;;;4.76;100.00;97233.50;1030677;28;19956;-72
2022/03/18 01:03:35;;;;;;;;;;;;;;;4.75;100.00;97232.69;1026819;28;19921;-72
2022/03/18 01:04:05;;;;;;;;;;;;;;;4.73;100.00;97225.09;1028503;28;20299;-72
2022/03/18 01:04:36;;;;;;;;;;;;;;;4.75;100.00;97230.09;1027075;28;19922;-73
2022/03/18 01:05:07;;;;;;;;;;;;;;;4.75;100.00;97232.69;1023070;28;19930;-72
2022/03/18 01:05:40;;;;;;;;;;;;;;;4.74;100.00;97238.91;1023079;29;19918;-72
2022/03/18 01:06:10;;;;;;;;;;;;;;;4.73;100.00;97232.09;1022900;29;19923;-73
2022/03/18 01:06:40;;;;;;;;;;;;;;;4.73;100.00;97232.09;1028653;28;19945;-72
2022/03/18 01:07:11;;;;;;;;;;;;;;;4.73;100.00;97232.91;1039060;28;19923;-73
2022/03/18 01:07:41;;;;;;;;;;;;;;;4.73;100.00;97232.09;1039217;28;19921;-71
2022/03/18 01:08:11;;;;;;;;;;;;;;;4.73;100.00;97232.91;1039199;28;19928;-72
2022/03/18 01:08:42;;;;;;;;;;;;;;;4.70;100.00;97230.69;1038810;28;19925;-72
2022/03/18 01:09:12;;;;;;;;;;;;;;;4.70;100.00;97235.06;1038295;28;19921;-72
2022/03/18 01:09:42;;;;;;;;;;;;;;;4.70;100.00;97233.28;1039045;28;20282;-72
2022/03/18 01:10:12;;;;;;;;;;;;;;;4.72;100.00;97230.47;1034636;28;19960;-72
2022/03/18 01:10:44;;;;;;;;;;;;;;;4.71;100.00;97239.28;1031033;28;19916;-71
2022/03/18 01:11:14;;;;;;;;;;;;;;;4.71;100.00;97231.47;1030280;28;19978;-72
2022/03/18 01:11:44;;;;;;;;;;;;;;;4.71;100.00;97229.69;1034939;28;20392;-72
2022/03/18 01:12:15;;;;;;;;;;;;;;;4.71;100.00;97234.06;1039092;28;19921;-71
2022/03/18 01:12:45;;;;;;;;;;;;;;;4.71;100.00;97234.06;1043214;28;19978;-72
2022/03/18 01:13:15;;;;;;;;;;;;;;;4.71;100.00;97228.88;1043082;28;19917;-72
2022/03/18 01:13:46;;;;;;;;;;;;;;;4.70;100.00;97230.69;1034665;28;20449;-71
2022/03/18 01:14:19;;;;;;;;;;;;;;;4.70;100.00;97229.88;1034757;28;20375;-72
2022/03/18 01:14:50;;;;;;;;;;;;;;;4.67;100.00;97231.03;1031030;28;19949;-72
2022/03/18 01:15:20;;;;;;;;;;;;;;;4.67;100.00;97236.25;1030944;28;20367;-72
2022/03/18 01:15:53;;;;;;;;;;;;;;;4.65;100.00;97230.41;1031533;28;20507;-71
2022/03/18 01:16:24;;;;;;;;;;;;;;;4.67;100.00;97233.66;1027537;28;20315;-72
2022/03/18 01:16:54;;;;;;;;;;;;;;;4.69;100.00;97230.84;1027198;28;19910;-71
2022/03/18 01:17:24;;;;;;;;;;;;;;;4.68;100.00;97224.84;1031109;28;19995;-72
2022/03/18 01:17:55;;;;;;;;;;;;;;;4.70;100.00;97232.47;1034620;28;19917;-72
2022/03/18 01:18:26;;;;;;;;;;;;;;;4.67;100.00;97228.44;1034859;28;20000;-72
2022/03/18 01:18:56;;;;;;;;;;;;;;;4.68;100.00;97230.03;1034228;28;19914;-71
2022/03/18 01:19:27;;;;;;;;;;;;;;;4.69;100.00;97230.84;1034588;28;19917;-72
2022/03/18 01:19:57;;;;;;;;;;;;;;;4.68;100.00;97234.44;1034799;28;20568;-72
2022/03/18 01:20:31;;;;;;;;;;;;;;;4.67;100.00;97228.44;1030584;28;19910;-72
2022/03/18 01:21:01;;;;;;;;;;;;;;;4.68;100.00;97229.25;1029038;28;20016;-72
2022/03/18 01:21:31;;;;;;;;;;;;;;;4.66;100.00;97232.06;1027324;28;19914;-72
2022/03/18 01:22:02;;;;;;;;;;;;;;;4.65;100.00;97227.03;1031184;28;19906;-72
2022/03/18 01:22:32;;;;;;;;;;;;;;;4.67;100.00;97233.66;1034515;28;19914;-72
2022/03/18 01:23:06;;;;;;;;;;;;;;;4.67;100.00;97232.84;1035554;28;19910;-73
2022/03/18 01:23:36;;;;;;;;;;;;;;;4.67;100.00;97225.03;1034642;28;20023;-72
2022/03/18 01:24:07;;;;;;;;;;;;;;;4.68;100.00;97234.44;1034790;28;20000;-72
2022/03/18 01:24:38;;;;;;;;;;;;;;;4.68;100.00;97230.03;1030653;28;19910;-72
2022/03/18 01:25:09;;;;;;;;;;;;;;;4.68;100.00;97234.44;1030575;28;19960;-72
2022/03/18 01:25:39;;;;;;;;;;;;;;;4.70;100.00;97232.47;1026817;28;20315;-71
2022/03/18 01:26:09;;;;;;;;;;;;;;;4.69;100.00;97230.84;1026673;28;19907;-72
2022/03/18 01:26:40;;;;;;;;;;;;;;;4.70;100.00;97232.47;1026653;28;20626;-72
2022/03/18 01:27:10;;;;;;;;;;;;;;;4.68;100.00;97224.84;1026861;28;19910;-72
2022/03/18 01:27:42;;;;;;;;;;;;;;;4.66;100.00;97223.41;1034406;28;20001;-72
2022/03/18 01:28:12;;;;;;;;;;;;;;;4.66;100.00;97232.06;1038990;28;19909;-72
2022/03/18 01:28:43;;;;;;;;;;;;;;;4.66;100.00;97226.84;1034969;28;19905;-72
2022/03/18 01:29:13;;;;;;;;;;;;;;;4.66;100.00;97234.66;1033810;28;19909;-72
2022/03/18 01:29:43;;;;;;;;;;;;;;;4.68;100.00;97234.44;1034850;28;20462;-72
2022/03/18 01:30:14;;;;;;;;;;;;;;;4.66;100.00;97226.84;1030594;28;20551;-72
2022/03/18 01:30:44;;;;;;;;;;;;;;;4.66;100.00;97232.06;1030736;28;19906;-72
2022/03/18 01:31:14;;;;;;;;;;;;;;;4.67;100.00;97222.44;1030390;28;19914;-72
2022/03/18 01:31:44;;;;;;;;;;;;;;;4.66;100.00;97231.22;1030774;28;19922;-72
2022/03/18 01:32:15;;;;;;;;;;;;;;;4.44;100.00;97192.25;1034714;28;20411;-72
2022/03/18 01:32:45;;;;;;;;;;;;;;;4.64;100.00;97231.41;1038779;28;19916;-72
2022/03/18 01:33:17;;;;;;;;;;;;;;;4.64;100.00;97228.81;1038567;28;19909;-72
2022/03/18 01:33:50;;;;;;;;;;;;;;;4.65;100.00;97234.81;1034967;28;19914;-72
2022/03/18 01:34:23;;;;;;;;;;;;;;;4.64;100.00;97234.03;1034597;28;19910;-72
2022/03/18 01:34:54;;;;;;;;;;;;;;;4.61;100.00;97238.78;1031291;28;19961;-73
2022/03/18 01:35:24;;;;;;;;;;;;;;;4.62;100.00;97227.41;1031757;28;19965;-72
2022/03/18 01:35:54;;;;;;;;;;;;;;;4.62;100.00;97232.59;1034357;28;19913;-73
2022/03/18 01:36:27;;;;;;;;;;;;;;;4.64;100.00;97234.03;1034841;28;19913;-72
2022/03/18 01:36:58;;;;;;;;;;;;;;;4.65;100.00;97235.63;1034611;28;19936;-73
2022/03/18 01:37:28;;;;;;;;;;;;;;;4.63;100.00;97242.03;1034824;28;20013;-72
2022/03/18 01:37:58;;;;;;;;;;;;;;;4.63;100.00;97234.22;1034541;28;19933;-72
2022/03/18 01:38:29;;;;;;;;;;;;;;;4.63;100.00;97247.22;1034708;28;19913;-72
2022/03/18 01:39:02;;;;;;;;;;;;;;;4.64;100.00;97233.22;1033938;28;19960;-72
2022/03/18 01:39:32;;;;;;;;;;;;;;;4.64;100.00;97243.63;1034834;28;19999;-72
2022/03/18 01:40:03;;;;;;;;;;;;;;;4.63;100.00;97234.22;1034631;28;19963;-72
2022/03/18 01:40:33;;;;;;;;;;;;;;;4.65;100.00;97235.63;1030773;28;20592;-72
2022/03/18 01:41:03;;;;;;;;;;;;;;;4.64;100.00;97241.81;1030656;28;19920;-72
2022/03/18 01:41:34;;;;;;;;;;;;;;;4.66;100.00;97231.22;1030681;28;19921;-72
2022/03/18 01:42:04;;;;;;;;;;;;;;;4.63;100.00;97235.03;1030688;28;20198;-70
2022/03/18 01:42:34;;;;;;;;;;;;;;;4.66;100.00;97234.66;1030593;28;19914;-73
2022/03/18 01:43:11;;;;;;;;;;;;;;;4.65;100.00;97234.81;1030591;28;19906;-72
2022/03/18 01:43:42;;;;;;;;;;;;;;;4.63;100.00;97240.22;1032199;28;19913;-72
2022/03/18 01:44:13;;;;;;;;;;;;;;;4.63;100.00;97242.03;1034713;28;19910;-72
2022/03/18 01:44:43;;;;;;;;;;;;;;;4.63;100.00;97242.03;1034739;28;19918;-72
2022/03/18 01:45:13;;;;;;;;;;;;;;;4.63;100.00;97239.41;1034596;28;19905;-72
2022/03/18 01:45:44;;;;;;;;;;;;;;;4.63;100.00;97242.03;1030726;28;19926;-72
2022/03/18 01:46:15;;;;;;;;;;;;;;;4.62;100.00;97240.38;1034845;28;19913;-71
2022/03/18 01:46:45;;;;;;;;;;;;;;;4.64;100.00;97233.22;1034646;28;19913;-72
2022/03/18 01:47:15;;;;;;;;;;;;;;;4.61;100.00;97246.59;1030660;28;19906;-73
2022/03/18 01:47:46;;;;;;;;;;;;;;;4.60;100.00;97243.19;1026717;28;20048;-72
2022/03/18 01:48:17;;;;;;;;;;;;;;;4.63;100.00;97237.63;1026459;28;19929;-72
2022/03/18 01:48:48;;;;;;;;;;;;;;;4.63;100.00;97235.03;1030867;28;19961;-72
2022/03/18 01:49:18;;;;;;;;;;;;;;;4.62;100.00;97238.59;1030056;28;19968;-73
2022/03/18 01:49:49;;;;;;;;;;;;;;;4.64;100.00;97234.03;1034788;28;20403;-73
2022/03/18 01:50:20;;;;;;;;;;;;;;;4.66;100.00;97233.81;1034896;28;19920;-72
2022/03/18 01:50:51;;;;;;;;;;;;;;;4.68;100.00;97235.25;1038752;28;19975;-72
2022/03/18 01:51:22;;;;;;;;;;;;;;;4.67;100.00;97232.84;1038520;28;19901;-72
2022/03/18 01:51:52;;;;;;;;;;;;;;;4.65;100.00;97234.81;1031020;28;19921;-72
2022/03/18 01:52:22;;;;;;;;;;;;;;;4.64;100.00;97225.41;1030585;28;19922;-72
2022/03/18 01:52:52;;;;;;;;;;;;;;;4.63;100.00;97231.63;1026535;28;19918;-72
2022/03/18 01:53:26;;;;;;;;;;;;;;;4.64;100.00;97233.22;1027106;28;19922;-72
2022/03/18 01:54:46;;;;;;;;;;;;;;;4.63;100.00;97229.03;1029489;28;19922;-71
2022/03/18 01:55:17;;;;;;;;;;;;;;;4.63;100.00;97234.22;1034015;28;20041;-72
2022/03/18 01:55:47;;;;;;;;;;;;;;;4.42;100.00;97199.44;1035554;28;20375;-72
2022/03/18 01:56:17;;;;;;;;;;;;;;;4.64;100.00;97225.41;1035160;28;19963;-72
2022/03/18 01:56:47;;;;;;;;;;;;;;;4.64;100.00;97230.63;1038226;28;20295;-73
2022/03/18 01:57:18;;;;;;;;;;;;;;;4.63;100.00;97226.41;1027049;28;19922;-72
2022/03/18 01:57:49;;;;;;;;;;;;;;;4.65;100.00;97227.03;1027114;28;19918;-72
2022/03/18 01:58:19;;;;;;;;;;;;;;;4.66;100.00;97231.22;1027554;28;19918;-72
2022/03/18 01:58:49;;;;;;;;;;;;;;;4.64;100.00;97228.03;1031457;28;19922;-71
2022/03/18 01:59:20;;;;;;;;;;;;;;;4.64;100.00;97228.03;1030651;28;19924;-72
2022/03/18 01:59:50;;;;;;;;;;;;;;;4.61;100.00;97224.00;1023595;28;19974;-72
2022/03/18 02:00:21;;;;;;;;;;;;;;;4.60;100.00;97229.41;1022725;29;19943;-72
2022/03/18 02:00:52;;;;;;;;;;;;;;;4.63;100.00;97234.22;1023536;28;20543;-72
2022/03/18 02:01:22;;;;;;;;;;;;;;;4.63;100.00;97227.22;1027665;28;19915;-72
2022/03/18 02:01:53;;;;;;;;;;;;;;;4.64;100.00;97228.81;1030288;28;19921;-72
2022/03/18 02:02:23;;;;;;;;;;;;;;;4.64;100.00;97225.41;1031856;28;19914;-72
2022/03/18 02:02:53;;;;;;;;;;;;;;;4.63;100.00;97226.41;1031392;28;19921;-72
2022/03/18 02:03:23;;;;;;;;;;;;;;;4.62;100.00;97230.00;1028731;28;19918;-72
2022/03/18 02:03:54;;;;;;;;;;;;;;;4.65;100.00;97224.41;1031682;28;19968;-72
2022/03/18 02:04:24;;;;;;;;;;;;;;;4.63;100.00;97224.63;1031561;28;19924;-72
2022/03/18 02:04:54;;;;;;;;;;;;;;;4.64;100.00;97230.63;1027943;28;19949;-71
2022/03/18 02:05:25;;;;;;;;;;;;;;;4.64;100.00;97220.22;1028290;28;19922;-72
2022/03/18 02:05:55;;;;;;;;;;;;;;;4.63;100.00;97231.63;1032043;28;20291;-72
2022/03/18 02:06:25;;;;;;;;;;;;;;;4.64;100.00;97234.03;1032612;28;19957;-72
2022/03/18 02:06:56;;;;;;;;;;;;;;;4.63;100.00;97224.63;1036120;28;21073;-71
2022/03/18 02:07:26;;;;;;;;;;;;;;;4.63;100.00;97235.03;1036283;28;19909;-72
2022/03/18 02:07:56;;;;;;;;;;;;;;;4.61;100.00;97231.00;1032478;28;19914;-72
2022/03/18 02:08:28;;;;;;;;;;;;;;;4.61;100.00;97228.41;1028090;28;19914;-72
2022/03/18 02:08:58;;;;;;;;;;;;;;;4.63;100.00;97226.41;1027629;28;20012;-69
2022/03/18 02:09:29;;;;;;;;;;;;;;;4.65;100.00;97229.63;1036312;28;19921;-73
2022/03/18 02:10:00;;;;;;;;;;;;;;;4.67;100.00;97233.66;1032073;28;19974;-72
2022/03/18 02:10:30;;;;;;;;;;;;;;;4.65;100.00;97238.22;1024136;28;19915;-73
2022/03/18 02:11:00;;;;;;;;;;;;;;;4.63;100.00;97231.63;1024074;28;19957;-72
2022/03/18 02:11:30;;;;;;;;;;;;;;;4.63;100.00;97231.63;1028053;28;19920;-73
2022/03/18 02:12:01;;;;;;;;;;;;;;;4.65;100.00;97237.41;1036368;28;19909;-72
2022/03/18 02:12:31;;;;;;;;;;;;;;;4.67;100.00;97232.84;1036290;28;19917;-71
2022/03/18 02:13:01;;;;;;;;;;;;;;;4.66;100.00;97236.41;1036214;28;19933;-71
2022/03/18 02:13:32;;;;;;;;;;;;;;;4.66;100.00;97241.63;1035987;28;20441;-72
2022/03/18 02:14:02;;;;;;;;;;;;;;;4.66;100.00;97237.25;1036313;28;19925;-72
2022/03/18 02:14:36;;;;;;;;;;;;;;;4.66;100.00;97233.81;1028171;28;19956;-72
2022/03/18 02:15:06;;;;;;;;;;;;;;;4.65;100.00;97237.41;1028465;28;19970;-72
2022/03/18 02:15:39;;;;;;;;;;;;;;;4.65;100.00;97234.81;1027729;28;20368;-72
2022/03/18 02:16:10;;;;;;;;;;;;;;;4.64;100.00;97243.63;1029967;28;19921;-72
2022/03/18 02:16:40;;;;;;;;;;;;;;;4.64;100.00;97241.03;1036165;28;19918;-72
2022/03/18 02:17:14;;;;;;;;;;;;;;;4.63;100.00;97231.63;1039460;28;20444;-72
2022/03/18 02:17:44;;;;;;;;;;;;;;;4.62;100.00;97233.38;1044540;28;20334;-73
2022/03/18 02:18:15;;;;;;;;;;;;;;;4.66;100.00;97239.00;1044679;28;19913;-72
2022/03/18 02:18:46;;;;;;;;;;;;;;;4.63;100.00;97242.03;1040583;28;19909;-72
2022/03/18 02:19:19;;;;;;;;;;;;;;;4.63;100.00;97237.63;1035319;28;19920;-71
2022/03/18 02:19:49;;;;;;;;;;;;;;;4.64;100.00;97244.41;1036184;28;19913;-72
2022/03/18 02:20:19;;;;;;;;;;;;;;;4.63;100.00;97239.41;1036679;28;19917;-72
2022/03/18 02:20:50;;;;;;;;;;;;;;;4.64;100.00;97234.03;1036464;28;19917;-72
2022/03/18 02:21:20;;;;;;;;;;;;;;;4.67;100.00;97238.06;1036244;28;19914;-72
2022/03/18 02:21:52;;;;;;;;;;;;;;;4.64;100.00;97246.22;1036496;28;20394;-72
2022/03/18 02:22:23;;;;;;;;;;;;;;;4.63;100.00;97234.22;1036710;28;19921;-72
2022/03/18 02:22:53;;;;;;;;;;;;;;;4.62;100.00;97243.00;1036252;28;19925;-72
2022/03/18 02:23:24;;;;;;;;;;;;;;;4.64;100.00;97234.03;1032174;28;19972;-72
2022/03/18 02:23:54;;;;;;;;;;;;;;;4.64;100.00;97241.81;1031988;28;19960;-71
2022/03/18 02:24:24;;;;;;;;;;;;;;;4.62;100.00;97241.19;1028268;28;19945;-72
2022/03/18 02:24:55;;;;;;;;;;;;;;;4.62;100.00;97240.38;1028143;28;19911;-72
2022/03/18 02:25:25;;;;;;;;;;;;;;;4.62;100.00;97237.78;1032272;28;19910;-72
2022/03/18 02:25:56;;;;;;;;;;;;;;;4.59;100.00;97240.75;1032152;28;20302;-72
2022/03/18 02:26:26;;;;;;;;;;;;;;;4.62;100.00;97245.59;1040193;28;19917;-72
2022/03/18 02:26:56;;;;;;;;;;;;;;;4.58;100.00;97244.38;1038182;28;21981;-72
2022/03/18 02:27:27;;;;;;;;;;;;;;;4.57;100.00;97240.16;1035305;28;20018;-72
2022/03/18 02:27:58;;;;;;;;;;;;;;;4.60;100.00;97247.59;1033716;28;19925;-72
2022/03/18 02:28:28;;;;;;;;;;;;;;;4.59;100.00;97245.97;1030894;28;19913;-71
2022/03/18 02:28:58;;;;;;;;;;;;;;;4.58;100.00;97242.56;1030889;28;19949;-71
2022/03/18 02:29:29;;;;;;;;;;;;;;;4.58;100.00;97244.38;1032285;28;19914;-73
2022/03/18 02:29:59;;;;;;;;;;;;;;;4.56;100.00;97244.56;1036548;28;19913;-72
2022/03/18 02:30:31;;;;;;;;;;;;;;;4.59;100.00;97244.16;1040092;28;20425;-73
2022/03/18 02:31:02;;;;;;;;;;;;;;;4.57;100.00;97247.97;1036508;28;19921;-70
2022/03/18 02:31:32;;;;;;;;;;;;;;;4.56;100.00;97246.34;1035834;28;20382;-73
2022/03/18 02:32:03;;;;;;;;;;;;;;;4.54;100.00;97243.13;1035888;28;19922;-71
2022/03/18 02:32:34;;;;;;;;;;;;;;;4.59;100.00;97241.56;1036555;28;19917;-72
2022/03/18 02:33:04;;;;;;;;;;;;;;;4.60;100.00;97240.59;1036270;28;19921;-73
2022/03/18 02:33:38;;;;;;;;;;;;;;;4.59;100.00;97240.75;1040122;28;20318;-73
2022/03/18 02:34:08;;;;;;;;;;;;;;;4.56;100.00;97241.97;1036500;28;20381;-72
2022/03/18 02:34:41;;;;;;;;;;;;;;;4.56;100.00;97247.16;1039115;28;20374;-72
2022/03/18 02:35:12;;;;;;;;;;;;;;;4.57;100.00;97238.38;1040075;28;19921;-73
2022/03/18 02:35:42;;;;;;;;;;;;;;;4.60;100.00;97238.00;1036471;28;20023;-70
2022/03/18 02:36:13;;;;;;;;;;;;;;;4.58;100.00;97242.56;1040442;28;20008;-72
2022/03/18 02:36:43;;;;;;;;;;;;;;;4.57;100.00;97235.75;1032210;28;19917;-72
2022/03/18 02:37:14;;;;;;;;;;;;;;;4.58;100.00;97241.75;1031779;28;20029;-72
2022/03/18 02:37:44;;;;;;;;;;;;;;;4.58;100.00;97239.97;1031349;28;19917;-72
2022/03/18 02:38:17;;;;;;;;;;;;;;;4.60;100.00;97247.59;1025490;28;20364;-69
2022/03/18 02:38:48;;;;;;;;;;;;;;;4.56;100.00;97239.38;1029917;28;19930;-71
2022/03/18 02:39:18;;;;;;;;;;;;;;;4.57;100.00;97240.16;1030759;28;19922;-71
2022/03/18 02:39:48;;;;;;;;;;;;;;;4.59;100.00;97243.38;1030727;28;19957;-71
2022/03/18 02:40:19;;;;;;;;;;;;;;;4.58;100.00;97242.56;1030698;28;19929;-70
2022/03/18 02:40:49;;;;;;;;;;;;;;;4.57;100.00;97240.16;1035842;28;19932;-73
2022/03/18 02:41:20;;;;;;;;;;;;;;;4.57;100.00;97247.97;1027850;28;19922;-72
2022/03/18 02:41:50;;;;;;;;;;;;;;;4.56;100.00;97247.16;1033404;28;19968;-72
2022/03/18 02:42:23;;;;;;;;;;;;;;;4.54;100.00;97241.34;1032308;28;19922;-72
2022/03/18 02:42:53;;;;;;;;;;;;;;;4.55;100.00;97239.53;1030935;28;19918;-72
2022/03/18 02:43:26;;;;;;;;;;;;;;;4.58;100.00;97241.75;1032803;28;19906;-70
2022/03/18 02:43:59;;;;;;;;;;;;;;;4.57;100.00;97245.38;1031022;28;20364;-70
2022/03/18 02:44:29;;;;;;;;;;;;;;;4.56;100.00;97246.34;1032089;28;19921;-72
2022/03/18 02:45:00;;;;;;;;;;;;;;;4.55;100.00;97239.53;1030142;28;20466;-69
2022/03/18 02:45:31;;;;;;;;;;;;;;;4.54;100.00;97240.53;1028466;28;19918;-72
2022/03/18 02:46:02;;;;;;;;;;;;;;;4.54;100.00;97243.94;1032269;28;20000;-71
2022/03/18 02:46:32;;;;;;;;;;;;;;;4.53;100.00;97237.13;1031968;28;20474;-72